Terminal Aerodrome Forecast
Issued by NWS Missoula, MT

Home | Current Version | Previous Version | Text Only | Print | Product List | Glossary On
Versions: 1 2 3 4 5 6 7 8 9 10 11 12 13 14
682
FTUS45 KMSO 221125
TAFGPI
TAF
KGPI 221125Z 2212/2312 VRB03KT P6SM SCT150
     FM221700 18008KT P6SM SCT100 BKN150=

USA.gov is the U.S. government's official web portal to all federal, state and local government web resources and services.